createdAt,value
2023-03-05T00:01:22.788Z,77.83
2023-03-05T00:03:52.414Z,78.04
2023-03-05T00:06:20.650Z,77.55
2023-03-05T00:08:50.402Z,77.92
2023-03-05T00:11:18.688Z,77.80
2023-03-05T00:13:47.141Z,77.68
2023-03-05T00:16:16.239Z,77.37
2023-03-05T00:18:45.041Z,78.20
2023-03-05T00:21:19.500Z,78.10
2023-03-05T00:23:47.559Z,77.94
2023-03-05T00:26:16.999Z,77.96
2023-03-05T00:28:44.935Z,77.84
2023-03-05T00:31:13.110Z,77.22
2023-03-05T00:33:41.087Z,77.56
2023-03-05T00:36:09.452Z,77.34
2023-03-05T00:38:37.550Z,77.42
2023-03-05T00:41:05.530Z,77.92
2023-03-05T00:43:34.834Z,77.97
2023-03-05T00:46:02.952Z,77.32
2023-03-05T00:48:30.961Z,77.15
2023-03-05T00:50:58.900Z,77.46
2023-03-05T00:53:27.421Z,77.68
2023-03-05T00:55:55.651Z,77.42
2023-03-05T00:58:23.608Z,77.38
2023-03-05T01:00:53.032Z,77.33
2023-03-05T01:03:21.065Z,77.37
2023-03-05T01:05:48.963Z,77.63
2023-03-05T01:08:17.089Z,77.39
2023-03-05T01:10:44.993Z,76.63
2023-03-05T01:13:13.079Z,77.30
2023-03-05T01:15:41.114Z,76.92
2023-03-05T01:18:10.485Z,76.67
2023-03-05T01:20:38.603Z,76.74
2023-03-05T01:23:06.657Z,76.59
2023-03-05T01:25:34.706Z,76.99
2023-03-05T01:28:02.668Z,76.35
2023-03-05T01:30:30.663Z,76.14
2023-03-05T01:32:58.618Z,76.70
2023-03-05T01:35:28.004Z,76.55
2023-03-05T01:37:56.081Z,76.54
2023-03-05T01:40:26.328Z,76.50
2023-03-05T01:42:58.408Z,76.56
2023-03-05T01:45:26.817Z,76.74
2023-03-05T01:47:54.850Z,76.98
2023-03-05T01:50:26.020Z,76.93
2023-03-05T01:52:59.359Z,76.90
2023-03-05T01:55:29.006Z,76.92
2023-03-05T01:57:59.055Z,77.18
2023-03-05T02:00:29.168Z,77.13
2023-03-05T02:02:58.521Z,76.92
2023-03-05T02:05:28.122Z,76.83
2023-03-05T02:07:58.016Z,77.11
2023-03-05T02:10:26.795Z,77.11
2023-03-05T02:12:56.111Z,77.09
2023-03-05T02:15:24.388Z,77.42
2023-03-05T02:17:52.487Z,77.31
2023-03-05T02:20:22.237Z,77.19
2023-03-05T02:22:51.626Z,77.32
2023-03-05T02:25:20.904Z,76.86
2023-03-05T02:27:53.738Z,77.40
2023-03-05T02:30:21.623Z,77.13
2023-03-05T02:32:49.689Z,77.14
2023-03-05T02:35:17.757Z,76.91
2023-03-05T02:37:45.851Z,77.51
2023-03-05T02:40:15.742Z,77.26
2023-03-05T02:42:43.666Z,77.26
2023-03-05T02:45:12.388Z,77.70
2023-03-05T02:47:40.353Z,77.82
2023-03-05T02:50:09.228Z,77.53
2023-03-05T02:52:40.522Z,77.90
2023-03-05T02:55:08.740Z,77.89
2023-03-05T02:57:38.101Z,77.76
2023-03-05T03:00:06.874Z,78.11
2023-03-05T03:02:34.965Z,78.19
2023-03-05T03:05:03.018Z,78.30
2023-03-05T03:07:31.227Z,78.33
2023-03-05T03:09:59.280Z,78.26
2023-03-05T03:12:27.226Z,78.34
2023-03-05T03:14:56.552Z,78.31
2023-03-05T03:17:24.622Z,78.31
2023-03-05T03:19:52.499Z,78.67
2023-03-05T03:22:20.512Z,78.79
2023-03-05T03:24:48.448Z,78.49
2023-03-05T03:27:16.647Z,78.59
2023-03-05T03:29:44.625Z,78.50
2023-03-05T03:32:14.163Z,78.77
2023-03-05T03:34:42.084Z,79.25
2023-03-05T03:37:10.206Z,79.48
2023-03-05T03:39:38.261Z,79.12
2023-03-05T03:42:06.520Z,79.19
2023-03-05T03:44:34.501Z,78.82
2023-03-05T03:47:02.455Z,78.95
2023-03-05T03:49:31.841Z,79.22
2023-03-05T03:51:59.787Z,79.44
2023-03-05T03:54:27.902Z,79.43
2023-03-05T03:56:55.769Z,79.50
2023-03-05T03:59:24.141Z,78.99
2023-03-05T04:01:52.035Z,79.38
2023-03-05T04:04:19.997Z,79.24
2023-03-05T04:06:49.315Z,79.25
2023-03-05T04:09:17.244Z,79.52
2023-03-05T04:11:45.262Z,79.30
2023-03-05T04:14:13.641Z,79.02
2023-03-05T04:16:41.645Z,79.25
2023-03-05T04:19:09.654Z,78.87
2023-03-05T04:21:37.583Z,79.22
2023-03-05T04:24:08.382Z,79.20
2023-03-05T04:26:36.445Z,78.58
2023-03-05T04:29:04.613Z,78.67
2023-03-05T04:31:32.634Z,78.81
2023-03-05T04:34:01.198Z,78.89
2023-03-05T04:36:29.233Z,78.98
2023-03-05T04:38:57.135Z,78.24
2023-03-05T04:41:26.429Z,78.55
2023-03-05T04:43:54.387Z,78.23
2023-03-05T04:46:22.521Z,78.55
2023-03-05T04:48:50.364Z,78.51
2023-03-05T04:51:18.271Z,78.38
2023-03-05T04:53:46.321Z,77.39
2023-03-05T04:56:14.786Z,77.57
2023-03-05T04:58:44.347Z,77.25
2023-03-05T05:01:12.323Z,77.85
2023-03-05T05:03:40.275Z,77.03
2023-03-05T05:06:08.604Z,77.21
2023-03-05T05:08:37.124Z,77.04
2023-03-05T05:11:06.560Z,77.16
2023-03-05T05:13:34.750Z,76.99
2023-03-05T05:16:07.125Z,76.51
2023-03-05T05:18:35.155Z,76.72
2023-03-05T05:21:03.117Z,76.80
2023-03-05T05:23:31.097Z,76.83
2023-03-05T05:25:59.929Z,75.89
2023-03-05T05:28:27.858Z,76.13
2023-03-05T05:30:56.075Z,75.50
2023-03-05T05:33:26.146Z,75.58
2023-03-05T05:35:54.112Z,75.58
2023-03-05T05:38:22.186Z,75.51
2023-03-05T05:40:50.240Z,75.88
2023-03-05T05:43:18.105Z,75.58
2023-03-05T05:45:46.118Z,75.22
2023-03-05T05:48:14.213Z,75.53
2023-03-05T05:50:43.617Z,75.12
2023-03-05T05:53:11.529Z,75.37
2023-03-05T05:55:41.563Z,74.83
2023-03-05T05:58:09.573Z,74.05
2023-03-05T06:00:37.652Z,74.50
2023-03-05T06:03:05.741Z,74.64
2023-03-05T06:05:33.768Z,74.79
2023-03-05T06:08:03.233Z,74.69
2023-03-05T06:10:31.312Z,75.00
2023-03-05T06:12:59.431Z,75.30
2023-03-05T06:15:27.399Z,75.21
2023-03-05T06:17:55.447Z,75.14
2023-03-05T06:20:23.444Z,75.48
2023-03-05T06:22:51.679Z,76.12
2023-03-05T06:25:21.244Z,76.06
2023-03-05T06:27:49.285Z,76.01
2023-03-05T06:30:17.592Z,76.25
2023-03-05T06:32:45.453Z,75.81
2023-03-05T06:35:14.268Z,75.68
2023-03-05T06:37:42.319Z,74.99
2023-03-05T06:40:11.323Z,75.20
2023-03-05T06:42:42.112Z,75.55
2023-03-05T06:45:11.051Z,75.92
2023-03-05T06:47:39.022Z,75.09
2023-03-05T06:50:07.595Z,74.72
2023-03-05T06:52:35.598Z,74.95
2023-03-05T06:55:03.552Z,75.20
2023-03-05T06:57:31.601Z,74.72
2023-03-05T07:00:01.177Z,75.04
2023-03-05T07:02:29.317Z,74.68
2023-03-05T07:04:57.314Z,74.88
2023-03-05T07:07:25.295Z,74.68
2023-03-05T07:09:53.904Z,75.20
2023-03-05T07:12:21.921Z,74.68
2023-03-05T07:14:49.934Z,74.22
2023-03-05T07:17:19.808Z,74.95
2023-03-05T07:19:47.801Z,75.10
2023-03-05T07:22:16.477Z,74.25
2023-03-05T07:24:44.499Z,74.63
2023-03-05T07:27:12.569Z,75.19
2023-03-05T07:29:40.558Z,74.96
2023-03-05T07:32:08.703Z,74.92
2023-03-05T07:34:39.959Z,74.99
2023-03-05T07:37:07.849Z,75.17
2023-03-05T07:39:35.892Z,75.86
2023-03-05T07:42:03.975Z,75.40
2023-03-05T07:44:32.070Z,75.35
2023-03-05T07:47:00.259Z,75.52
2023-03-05T07:49:28.299Z,75.96
2023-03-05T07:51:58.023Z,76.08
2023-03-05T07:54:26.093Z,76.19
2023-03-05T07:56:56.791Z,75.49
2023-03-05T07:59:24.810Z,75.48
2023-03-05T08:01:52.645Z,75.25
2023-03-05T08:04:20.811Z,74.65
2023-03-05T08:06:50.085Z,74.51
2023-03-05T08:09:19.595Z,74.98
2023-03-05T08:11:47.543Z,75.61
2023-03-05T08:14:15.637Z,75.74
2023-03-05T08:16:44.523Z,74.78
2023-03-05T08:19:13.440Z,74.98
2023-03-05T08:21:41.305Z,74.42
2023-03-05T08:24:10.308Z,75.10
2023-03-05T08:26:39.859Z,74.67
2023-03-05T08:29:08.209Z,75.53
2023-03-05T08:31:36.738Z,75.26
2023-03-05T08:34:05.856Z,75.75
2023-03-05T08:36:33.903Z,75.28
2023-03-05T08:39:02.017Z,75.13
2023-03-05T08:41:30.331Z,75.35
2023-03-05T08:43:59.676Z,75.11
2023-03-05T08:46:27.735Z,74.50
2023-03-05T08:48:55.796Z,74.21
2023-03-05T08:51:25.779Z,73.82
2023-03-05T08:53:54.659Z,73.31
2023-03-05T08:56:22.866Z,74.62
2023-03-05T08:58:52.581Z,74.75
2023-03-05T09:01:22.806Z,74.03
2023-03-05T09:03:51.287Z,73.52
2023-03-05T09:06:19.303Z,74.26
2023-03-05T09:08:47.447Z,74.25
2023-03-05T09:11:15.604Z,73.41
2023-03-05T09:13:43.982Z,73.86
2023-03-05T09:16:17.452Z,73.80
2023-03-05T09:18:46.948Z,73.84
2023-03-05T09:21:16.510Z,73.65
2023-03-05T09:23:44.738Z,73.54
2023-03-05T09:26:14.007Z,74.04
2023-03-05T09:28:42.029Z,73.79
2023-03-05T09:31:10.428Z,74.22
2023-03-05T09:33:38.682Z,73.30
2023-03-05T09:36:17.918Z,73.09
2023-03-05T09:38:46.119Z,72.83
2023-03-05T09:41:17.424Z,72.76
2023-03-05T09:43:50.767Z,71.99
2023-03-05T09:46:22.650Z,71.79
2023-03-05T09:48:52.035Z,71.89
2023-03-05T09:51:25.986Z,72.05
2023-03-05T09:54:02.649Z,72.26
2023-03-05T09:56:32.361Z,71.51
2023-03-05T09:59:03.588Z,72.11
2023-03-05T10:01:38.871Z,72.74
2023-03-05T10:04:11.558Z,72.57
2023-03-05T10:06:48.489Z,72.44
2023-03-05T10:09:21.106Z,73.07
2023-03-05T10:11:52.242Z,73.66
2023-03-05T10:14:25.078Z,72.79
2023-03-05T10:17:24.030Z,72.82
2023-03-05T10:19:58.854Z,73.09
2023-03-05T10:22:29.870Z,72.69
2023-03-05T10:25:05.214Z,72.32
2023-03-05T10:27:43.497Z,72.75
2023-03-05T10:30:22.241Z,73.31
2023-03-05T10:32:55.119Z,73.15
2023-03-05T10:35:41.047Z,73.75
2023-03-05T10:38:29.142Z,73.53
2023-03-05T10:40:57.267Z,72.24
2023-03-05T10:43:28.898Z,71.66
2023-03-05T10:45:58.810Z,72.26
2023-03-05T10:48:29.544Z,72.04
2023-03-05T10:51:00.694Z,71.46
2023-03-05T10:53:33.767Z,71.49
2023-03-05T10:56:03.156Z,71.75
2023-03-05T10:58:31.382Z,71.93
2023-03-05T11:01:00.496Z,72.27
2023-03-05T11:03:46.646Z,72.54
2023-03-05T11:06:15.403Z,73.04
2023-03-05T11:08:44.937Z,72.95
2023-03-05T11:11:14.263Z,72.54
2023-03-05T11:13:51.234Z,73.14
2023-03-05T11:16:21.139Z,72.78
2023-03-05T11:18:49.252Z,72.23
2023-03-05T11:21:24.016Z,72.30
2023-03-05T11:24:06.823Z,71.49
2023-03-05T11:26:35.070Z,71.25
2023-03-05T11:29:05.076Z,71.41
2023-03-05T11:31:34.194Z,71.61
2023-03-05T11:34:03.572Z,71.83
2023-03-05T11:36:32.446Z,71.46
2023-03-05T11:39:02.321Z,71.33
2023-03-05T11:41:34.155Z,70.60
2023-03-05T11:44:05.825Z,71.05
2023-03-05T11:46:42.391Z,70.89
2023-03-05T11:49:13.043Z,69.32
2023-03-05T11:51:43.014Z,70.36
2023-03-05T11:54:15.947Z,69.17
2023-03-05T11:56:47.200Z,69.41
2023-03-05T11:59:17.639Z,69.39
2023-03-05T12:01:47.764Z,70.38
2023-03-05T12:04:16.391Z,70.26
2023-03-05T12:06:45.877Z,70.42
2023-03-05T12:09:17.225Z,70.98
2023-03-05T12:11:49.525Z,70.98
2023-03-05T12:14:20.422Z,71.08
2023-03-05T12:16:49.940Z,70.81
2023-03-05T12:19:35.892Z,70.85
2023-03-05T12:22:04.311Z,71.44
2023-03-05T12:24:36.588Z,71.44
2023-03-05T12:27:11.035Z,71.03
2023-03-05T12:29:43.882Z,70.86
2023-03-05T12:32:31.592Z,70.48
2023-03-05T12:35:00.269Z,70.80
2023-03-05T12:37:52.195Z,71.59
2023-03-05T12:40:24.524Z,71.47
2023-03-05T12:42:58.108Z,71.34
2023-03-05T12:45:27.722Z,70.79
2023-03-05T12:48:13.570Z,70.20
2023-03-05T12:50:52.910Z,70.51
2023-03-05T12:53:21.648Z,70.33
2023-03-05T12:55:58.267Z,69.88
2023-03-05T12:58:35.656Z,70.08
2023-03-05T13:01:05.687Z,68.93
2023-03-05T13:03:36.804Z,69.36
2023-03-05T13:06:06.865Z,70.03
2023-03-05T13:08:36.294Z,68.97
2023-03-05T13:11:05.867Z,68.86
2023-03-05T13:13:36.973Z,67.87
2023-03-05T13:16:05.546Z,68.17
2023-03-05T13:18:34.305Z,67.98
2023-03-05T13:21:04.612Z,67.54
2023-03-05T13:23:36.259Z,68.12
2023-03-05T13:26:05.601Z,68.02
2023-03-05T13:28:34.012Z,66.95
2023-03-05T13:31:05.202Z,67.64
2023-03-05T13:33:33.922Z,68.29
2023-03-05T13:36:02.440Z,68.41
2023-03-05T13:38:32.969Z,68.78
2023-03-05T13:41:20.691Z,68.90
2023-03-05T13:43:50.065Z,69.54
2023-03-05T13:46:26.217Z,69.38
2023-03-05T13:48:54.313Z,69.13
2023-03-05T13:51:22.687Z,69.19
2023-03-05T13:53:51.390Z,68.34
2023-03-05T13:56:21.114Z,68.33
2023-03-05T13:58:52.592Z,68.40
2023-03-05T14:01:28.296Z,69.00
2023-03-05T14:03:57.447Z,69.98
2023-03-05T14:06:28.036Z,69.40
2023-03-05T14:09:00.688Z,69.41
2023-03-05T14:11:28.854Z,68.97
2023-03-05T14:14:01.624Z,69.54
2023-03-05T14:16:33.410Z,69.45
2023-03-05T14:19:02.404Z,68.62
2023-03-05T14:21:44.455Z,69.25
2023-03-05T14:24:16.772Z,70.02
2023-03-05T14:26:49.992Z,69.56
2023-03-05T14:29:19.715Z,69.35
2023-03-05T14:31:50.311Z,69.29
2023-03-05T14:34:22.166Z,68.44
2023-03-05T14:36:50.862Z,68.95
2023-03-05T14:39:32.556Z,69.11
2023-03-05T14:42:30.554Z,69.13
2023-03-05T14:44:59.350Z,68.74
2023-03-05T14:47:29.219Z,68.70
2023-03-05T14:49:57.319Z,66.63
2023-03-05T14:52:26.338Z,67.25
2023-03-05T14:54:55.950Z,67.22
2023-03-05T14:57:24.869Z,67.13
2023-03-05T14:59:52.814Z,66.53
2023-03-05T15:02:22.601Z,66.75
2023-03-05T15:04:52.100Z,67.09
2023-03-05T15:07:23.771Z,67.59
2023-03-05T15:09:51.781Z,67.75
2023-03-05T15:12:24.731Z,67.86
2023-03-05T15:14:53.269Z,67.73
2023-03-05T15:17:22.382Z,67.97
2023-03-05T15:19:51.827Z,68.42
2023-03-05T15:22:19.817Z,68.93
2023-03-05T15:24:47.921Z,69.12
2023-03-05T15:27:15.866Z,68.62
2023-03-05T15:29:43.956Z,68.36
2023-03-05T15:32:11.970Z,68.63
2023-03-05T15:34:40.143Z,67.98
2023-03-05T15:37:09.516Z,67.66
2023-03-05T15:39:37.628Z,67.73
2023-03-05T15:42:06.592Z,67.99
2023-03-05T15:44:34.768Z,67.97
2023-03-05T15:47:02.736Z,67.67
2023-03-05T15:49:30.677Z,67.76
2023-03-05T15:51:58.826Z,68.42
2023-03-05T15:54:28.705Z,67.57
2023-03-05T15:56:56.747Z,67.36
2023-03-05T15:59:25.241Z,67.29
2023-03-05T16:01:53.259Z,67.70
2023-03-05T16:04:21.196Z,67.98
2023-03-05T16:06:50.733Z,68.18
2023-03-05T16:09:20.395Z,68.29
2023-03-05T16:11:51.646Z,67.69
2023-03-05T16:14:22.904Z,67.92
2023-03-05T16:16:50.982Z,67.98
2023-03-05T16:19:19.957Z,67.83
2023-03-05T16:21:47.988Z,67.93
2023-03-05T16:24:16.041Z,67.62
2023-03-05T16:26:44.106Z,68.08
2023-03-05T16:29:14.215Z,67.89
2023-03-05T16:31:43.349Z,67.87
2023-03-05T16:34:14.103Z,67.30
2023-03-05T16:36:46.280Z,67.70
2023-03-05T16:39:14.406Z,67.67
2023-03-05T16:41:42.467Z,67.63
2023-03-05T16:44:11.041Z,67.81
2023-03-05T16:46:42.135Z,68.35
2023-03-05T16:49:10.167Z,69.20
2023-03-05T16:51:38.105Z,69.16
2023-03-05T16:54:06.551Z,69.08
2023-03-05T16:56:35.706Z,68.76
2023-03-05T16:59:04.351Z,69.13
2023-03-05T17:01:32.439Z,68.97
2023-03-05T17:04:02.332Z,68.75
2023-03-05T17:06:31.111Z,68.68
2023-03-05T17:08:59.121Z,68.75
2023-03-05T17:11:27.554Z,69.00
2023-03-05T17:13:55.472Z,68.81
2023-03-05T17:16:23.936Z,68.60
2023-03-05T17:18:52.139Z,68.89
2023-03-05T17:21:21.563Z,68.53
2023-03-05T17:23:49.600Z,68.76
2023-03-05T17:26:18.988Z,68.60
2023-03-05T17:28:46.944Z,69.07
2023-03-05T17:31:15.603Z,68.68
2023-03-05T17:33:43.657Z,69.05
2023-03-05T17:36:15.355Z,69.19
2023-03-05T17:38:45.060Z,68.99
2023-03-05T17:41:13.348Z,69.06
2023-03-05T17:43:41.383Z,68.78
2023-03-05T17:46:09.600Z,68.77
2023-03-05T17:48:39.370Z,69.18
2023-03-05T17:51:07.539Z,69.05
2023-03-05T17:53:36.158Z,68.99
2023-03-05T17:56:07.098Z,69.26
2023-03-05T17:58:35.076Z,69.38
2023-03-05T18:01:03.182Z,69.41
2023-03-05T18:03:31.168Z,69.72
2023-03-05T18:05:59.361Z,69.50
2023-03-05T18:08:27.230Z,69.70
2023-03-05T18:10:55.320Z,69.38
2023-03-05T18:13:24.826Z,69.82
2023-03-05T18:15:52.866Z,69.46
2023-03-05T18:18:20.924Z,69.74
2023-03-05T18:20:49.027Z,69.81
2023-03-05T18:23:17.217Z,69.33
2023-03-05T18:25:45.653Z,69.60
2023-03-05T18:28:14.421Z,69.95
2023-03-05T18:30:44.359Z,70.04
2023-03-05T18:33:16.779Z,69.74
2023-03-05T18:35:44.749Z,69.84
2023-03-05T18:38:12.820Z,69.92
2023-03-05T18:40:41.094Z,70.03
2023-03-05T18:43:10.942Z,70.18
2023-03-05T18:45:38.851Z,70.03
2023-03-05T18:48:08.660Z,70.34
2023-03-05T18:50:36.737Z,70.31
2023-03-05T18:53:04.731Z,70.16
2023-03-05T18:55:32.674Z,70.25
2023-03-05T18:58:00.771Z,70.51
2023-03-05T19:00:30.298Z,70.68
2023-03-05T19:02:58.564Z,70.64
2023-03-05T19:05:28.003Z,70.70
2023-03-05T19:07:56.377Z,71.27
2023-03-05T19:10:24.751Z,71.12
2023-03-05T19:13:08.330Z,71.34
2023-03-05T19:15:36.310Z,71.43
2023-03-05T19:18:05.492Z,71.46
2023-03-05T19:20:34.919Z,71.84
2023-03-05T19:23:02.817Z,71.70
2023-03-05T19:25:30.764Z,71.86
2023-03-05T19:27:58.687Z,72.41
2023-03-05T19:30:26.674Z,72.53
2023-03-05T19:32:54.780Z,72.50
2023-03-05T19:35:23.295Z,72.63
2023-03-05T19:37:52.760Z,72.72
2023-03-05T19:40:20.935Z,72.47
2023-03-05T19:42:48.958Z,72.60
2023-03-05T19:45:16.955Z,72.45
2023-03-05T19:47:44.870Z,72.68
2023-03-05T19:50:15.538Z,72.33
2023-03-05T19:52:43.648Z,72.55
2023-03-05T19:55:13.315Z,72.60
2023-03-05T19:57:41.341Z,72.79
2023-03-05T20:00:09.962Z,73.18
2023-03-05T20:02:37.931Z,73.42
2023-03-05T20:05:06.212Z,72.93
2023-03-05T20:07:34.320Z,73.23
2023-03-05T20:10:02.325Z,73.19
2023-03-05T20:12:32.055Z,73.53
2023-03-05T20:14:59.943Z,73.70
2023-03-05T20:17:27.915Z,74.10
2023-03-05T20:19:59.138Z,74.37
2023-03-05T20:22:27.076Z,74.36
2023-03-05T20:24:55.088Z,74.49
2023-03-05T20:27:23.076Z,74.95
2023-03-05T20:29:52.497Z,74.65
2023-03-05T20:32:20.405Z,74.89
2023-03-05T20:34:51.745Z,74.98
2023-03-05T20:37:45.529Z,74.61
2023-03-05T20:40:14.110Z,74.82
2023-03-05T20:42:42.067Z,74.94
2023-03-05T20:45:12.094Z,74.71
2023-03-05T20:47:42.549Z,74.65
2023-03-05T20:50:11.218Z,75.22
2023-03-05T20:52:40.477Z,75.47
2023-03-05T20:55:09.441Z,75.10
2023-03-05T20:57:37.400Z,75.75
2023-03-05T21:00:05.932Z,75.28
2023-03-05T21:02:35.573Z,75.44
2023-03-05T21:05:03.708Z,75.62
2023-03-05T21:07:31.838Z,75.42
2023-03-05T21:09:59.847Z,75.59
2023-03-05T21:12:27.668Z,75.47
2023-03-05T21:14:55.552Z,75.71
2023-03-05T21:17:23.409Z,75.50
2023-03-05T21:19:53.556Z,75.44
2023-03-05T21:22:21.442Z,75.63
2023-03-05T21:25:16.567Z,75.45
2023-03-05T21:27:44.727Z,75.44
2023-03-05T21:30:13.182Z,75.91
2023-03-05T21:32:41.112Z,75.62
2023-03-05T21:35:14.269Z,75.79
2023-03-05T21:37:43.023Z,76.09
2023-03-05T21:40:11.745Z,75.94
2023-03-05T21:42:40.500Z,75.92
2023-03-05T21:45:08.775Z,76.22
2023-03-05T21:47:36.682Z,76.20
2023-03-05T21:50:04.856Z,76.06
2023-03-05T21:52:34.670Z,76.28
2023-03-05T21:55:03.167Z,76.42
2023-03-05T21:57:32.734Z,76.31
2023-03-05T22:00:00.704Z,76.40
2023-03-05T22:02:28.863Z,76.42
2023-03-05T22:04:56.894Z,76.16
2023-03-05T22:07:24.883Z,76.39
2023-03-05T22:09:56.463Z,76.38
2023-03-05T22:13:07.866Z,76.42
2023-03-05T22:15:41.766Z,76.32
2023-03-05T22:18:09.787Z,76.10
2023-03-05T22:20:37.679Z,76.28
2023-03-05T22:23:05.734Z,75.99
2023-03-05T22:25:35.364Z,75.78
2023-03-05T22:30:50.134Z,75.82
2023-03-05T22:33:18.465Z,75.91
2023-03-05T22:35:46.402Z,75.53
2023-03-05T22:38:15.001Z,75.83
2023-03-05T22:40:45.224Z,75.80
2023-03-05T22:43:13.753Z,76.01
2023-03-05T22:45:41.815Z,76.13
2023-03-05T22:48:10.633Z,75.90
2023-03-05T22:50:38.953Z,75.90
2023-03-05T22:53:06.863Z,75.94
2023-03-05T22:55:34.855Z,76.34
2023-03-05T22:58:04.306Z,76.12
2023-03-05T23:00:32.316Z,76.28
2023-03-05T23:03:00.459Z,76.37
2023-03-05T23:05:28.504Z,76.10
2023-03-05T23:07:56.350Z,75.94
2023-03-05T23:10:26.912Z,75.94
2023-03-05T23:12:55.882Z,75.72
2023-03-05T23:15:26.145Z,75.60
2023-03-05T23:17:54.716Z,75.69
2023-03-05T23:20:23.833Z,75.90
2023-03-05T23:22:52.978Z,76.09
2023-03-05T23:25:21.610Z,75.50
2023-03-05T23:27:49.779Z,75.64
2023-03-05T23:30:19.852Z,75.32
2023-03-05T23:32:51.544Z,75.01
2023-03-05T23:35:20.815Z,75.17
2023-03-05T23:37:48.978Z,75.14
2023-03-05T23:40:18.751Z,74.41
2023-03-05T23:42:46.869Z,74.70
2023-03-05T23:45:16.113Z,74.60
2023-03-05T23:47:44.071Z,74.67
2023-03-05T23:50:16.032Z,74.64
2023-03-05T23:52:44.193Z,74.56
2023-03-05T23:55:15.824Z,74.65
2023-03-05T23:57:44.088Z,74.72
